Terminal Aerodrome Forecast
Issued by NWS

Home | Current Version | Previous Version | Text Only | Print | Product List | Glossary On
Versions: 1 2 3 4 5 6 7 8 9 10 11 12 13 14 15 16 17 18
312
FTUS46 KSGX 232335
TAFTRM
TAF
KTRM 232335Z 2400/2424 32009KT P6SM VCSH FEW027 SCT110
     FM240600 32011KT P6SM SCT030 SCT050
     FM241700 VRB06KT P6SM SCT030 SCT050=

USA.gov is the U.S. government's official web portal to all federal, state and local government web resources and services.